sensor_id;sensor_type;location;lat;lon;timestamp;P1;durP1;ratioP1;P2;durP2;ratioP2
28009;SDS011;15334;49.494;8.410;2023-05-23T00:02:21;69.63;;;34.55;;
28009;SDS011;15334;49.494;8.410;2023-05-23T00:04:50;69.80;;;35.20;;
28009;SDS011;15334;49.494;8.410;2023-05-23T00:07:23;68.15;;;34.42;;
28009;SDS011;15334;49.494;8.410;2023-05-23T00:09:51;66.57;;;35.28;;
28009;SDS011;15334;49.494;8.410;2023-05-23T00:12:20;65.68;;;33.53;;
28009;SDS011;15334;49.494;8.410;2023-05-23T00:14:48;71.20;;;36.28;;
28009;SDS011;15334;49.494;8.410;2023-05-23T00:17:18;62.33;;;33.83;;
28009;SDS011;15334;49.494;8.410;2023-05-23T00:19:47;71.78;;;35.45;;
28009;SDS011;15334;49.494;8.410;2023-05-23T00:22:16;73.45;;;34.90;;
28009;SDS011;15334;49.494;8.410;2023-05-23T00:24:44;66.45;;;34.13;;
28009;SDS011;15334;49.494;8.410;2023-05-23T00:27:12;61.90;;;32.70;;
28009;SDS011;15334;49.494;8.410;2023-05-23T00:29:40;65.95;;;32.80;;
28009;SDS011;15334;49.494;8.410;2023-05-23T00:32:08;62.80;;;32.80;;
28009;SDS011;15334;49.494;8.410;2023-05-23T00:34:36;67.43;;;33.45;;
28009;SDS011;15334;49.494;8.410;2023-05-23T00:37:04;65.88;;;32.78;;
28009;SDS011;15334;49.494;8.410;2023-05-23T00:39:34;69.63;;;33.67;;
28009;SDS011;15334;49.494;8.410;2023-05-23T00:42:03;61.75;;;33.05;;
28009;SDS011;15334;49.494;8.410;2023-05-23T00:44:31;59.85;;;32.42;;
28009;SDS011;15334;49.494;8.410;2023-05-23T00:46:59;57.50;;;31.00;;
28009;SDS011;15334;49.494;8.410;2023-05-23T00:49:27;68.82;;;32.13;;
28009;SDS011;15334;49.494;8.410;2023-05-23T00:51:56;59.58;;;31.60;;
28009;SDS011;15334;49.494;8.410;2023-05-23T00:54:25;57.72;;;30.85;;
28009;SDS011;15334;49.494;8.410;2023-05-23T00:56:57;53.00;;;27.65;;
28009;SDS011;15334;49.494;8.410;2023-05-23T00:59:25;57.40;;;30.65;;
28009;SDS011;15334;49.494;8.410;2023-05-23T01:01:54;66.40;;;31.25;;
28009;SDS011;15334;49.494;8.410;2023-05-23T01:04:23;51.42;;;28.52;;
28009;SDS011;15334;49.494;8.410;2023-05-23T01:06:53;52.22;;;29.45;;
28009;SDS011;15334;49.494;8.410;2023-05-23T01:09:22;52.80;;;29.40;;
28009;SDS011;15334;49.494;8.410;2023-05-23T01:11:56;50.58;;;29.58;;
28009;SDS011;15334;49.494;8.410;2023-05-23T01:14:41;54.38;;;28.83;;
28009;SDS011;15334;49.494;8.410;2023-05-23T01:17:14;53.70;;;27.67;;
28009;SDS011;15334;49.494;8.410;2023-05-23T01:19:57;52.40;;;29.15;;
28009;SDS011;15334;49.494;8.410;2023-05-23T01:22:35;49.38;;;27.13;;
28009;SDS011;15334;49.494;8.410;2023-05-23T01:25:25;51.83;;;25.98;;
28009;SDS011;15334;49.494;8.410;2023-05-23T01:28:04;48.83;;;26.60;;
28009;SDS011;15334;49.494;8.410;2023-05-23T01:30:35;53.53;;;29.15;;
28009;SDS011;15334;49.494;8.410;2023-05-23T01:33:07;49.13;;;29.35;;
28009;SDS011;15334;49.494;8.410;2023-05-23T01:35:37;53.33;;;29.80;;
28009;SDS011;15334;49.494;8.410;2023-05-23T01:38:06;53.15;;;29.70;;
28009;SDS011;15334;49.494;8.410;2023-05-23T01:40:34;47.20;;;27.63;;
28009;SDS011;15334;49.494;8.410;2023-05-23T01:43:04;52.97;;;29.40;;
28009;SDS011;15334;49.494;8.410;2023-05-23T01:45:32;52.25;;;29.88;;
28009;SDS011;15334;49.494;8.410;2023-05-23T01:48:01;54.92;;;28.70;;
28009;SDS011;15334;49.494;8.410;2023-05-23T01:50:31;52.80;;;27.60;;
28009;SDS011;15334;49.494;8.410;2023-05-23T01:52:59;48.22;;;28.95;;
28009;SDS011;15334;49.494;8.410;2023-05-23T01:55:27;51.05;;;30.60;;
28009;SDS011;15334;49.494;8.410;2023-05-23T01:57:56;54.42;;;30.30;;
28009;SDS011;15334;49.494;8.410;2023-05-23T02:00:27;51.22;;;28.98;;
28009;SDS011;15334;49.494;8.410;2023-05-23T02:02:55;48.20;;;27.77;;
28009;SDS011;15334;49.494;8.410;2023-05-23T02:05:23;51.03;;;29.20;;
28009;SDS011;15334;49.494;8.410;2023-05-23T02:07:52;54.30;;;29.33;;
28009;SDS011;15334;49.494;8.410;2023-05-23T02:10:20;54.03;;;29.85;;
28009;SDS011;15334;49.494;8.410;2023-05-23T02:12:48;56.70;;;30.58;;
28009;SDS011;15334;49.494;8.410;2023-05-23T02:15:16;50.25;;;29.45;;
28009;SDS011;15334;49.494;8.410;2023-05-23T02:17:45;51.10;;;29.08;;
28009;SDS011;15334;49.494;8.410;2023-05-23T02:20:14;54.40;;;29.35;;
28009;SDS011;15334;49.494;8.410;2023-05-23T02:22:44;44.97;;;27.33;;
28009;SDS011;15334;49.494;8.410;2023-05-23T02:25:12;51.60;;;29.63;;
28009;SDS011;15334;49.494;8.410;2023-05-23T02:27:41;53.38;;;31.52;;
28009;SDS011;15334;49.494;8.410;2023-05-23T02:30:09;56.05;;;31.40;;
28009;SDS011;15334;49.494;8.410;2023-05-23T02:32:37;62.13;;;32.30;;
28009;SDS011;15334;49.494;8.410;2023-05-23T02:35:07;61.85;;;35.60;;
28009;SDS011;15334;49.494;8.410;2023-05-23T02:37:36;57.78;;;31.23;;
28009;SDS011;15334;49.494;8.410;2023-05-23T02:40:04;54.17;;;31.95;;
28009;SDS011;15334;49.494;8.410;2023-05-23T02:42:33;59.13;;;32.00;;
28009;SDS011;15334;49.494;8.410;2023-05-23T02:45:01;58.10;;;31.23;;
28009;SDS011;15334;49.494;8.410;2023-05-23T02:47:30;58.35;;;33.10;;
28009;SDS011;15334;49.494;8.410;2023-05-23T02:49:58;54.42;;;30.15;;
28009;SDS011;15334;49.494;8.410;2023-05-23T02:52:27;53.17;;;30.25;;
28009;SDS011;15334;49.494;8.410;2023-05-23T02:54:55;54.28;;;31.13;;
28009;SDS011;15334;49.494;8.410;2023-05-23T02:57:23;53.42;;;28.42;;
28009;SDS011;15334;49.494;8.410;2023-05-23T02:59:51;49.40;;;29.05;;
28009;SDS011;15334;49.494;8.410;2023-05-23T03:02:19;54.75;;;30.35;;
28009;SDS011;15334;49.494;8.410;2023-05-23T03:04:48;50.47;;;29.85;;
28009;SDS011;15334;49.494;8.410;2023-05-23T03:07:16;52.45;;;28.70;;
28009;SDS011;15334;49.494;8.410;2023-05-23T03:09:55;46.60;;;27.80;;
28009;SDS011;15334;49.494;8.410;2023-05-23T03:12:23;43.97;;;26.27;;
28009;SDS011;15334;49.494;8.410;2023-05-23T03:14:51;48.80;;;28.48;;
28009;SDS011;15334;49.494;8.410;2023-05-23T03:17:19;45.15;;;26.00;;
28009;SDS011;15334;49.494;8.410;2023-05-23T03:19:47;42.33;;;25.40;;
28009;SDS011;15334;49.494;8.410;2023-05-23T03:22:15;46.05;;;26.55;;
28009;SDS011;15334;49.494;8.410;2023-05-23T03:24:43;46.78;;;26.27;;
28009;SDS011;15334;49.494;8.410;2023-05-23T03:27:12;43.42;;;25.63;;
28009;SDS011;15334;49.494;8.410;2023-05-23T03:29:40;42.92;;;24.48;;
28009;SDS011;15334;49.494;8.410;2023-05-23T03:32:08;45.22;;;24.50;;
28009;SDS011;15334;49.494;8.410;2023-05-23T03:34:36;44.35;;;25.70;;
28009;SDS011;15334;49.494;8.410;2023-05-23T03:37:04;48.40;;;25.42;;
28009;SDS011;15334;49.494;8.410;2023-05-23T03:39:32;39.30;;;24.58;;
28009;SDS011;15334;49.494;8.410;2023-05-23T03:42:02;40.60;;;23.92;;
28009;SDS011;15334;49.494;8.410;2023-05-23T03:44:32;41.65;;;24.77;;
28009;SDS011;15334;49.494;8.410;2023-05-23T03:47:00;39.40;;;25.95;;
28009;SDS011;15334;49.494;8.410;2023-05-23T03:49:28;45.70;;;25.52;;
28009;SDS011;15334;49.494;8.410;2023-05-23T03:51:56;44.95;;;23.83;;
28009;SDS011;15334;49.494;8.410;2023-05-23T03:54:24;42.40;;;24.63;;
28009;SDS011;15334;49.494;8.410;2023-05-23T03:56:51;44.42;;;24.60;;
28009;SDS011;15334;49.494;8.410;2023-05-23T03:59:19;38.53;;;22.00;;
28009;SDS011;15334;49.494;8.410;2023-05-23T04:01:49;37.75;;;21.75;;
28009;SDS011;15334;49.494;8.410;2023-05-23T04:04:17;38.47;;;23.48;;
28009;SDS011;15334;49.494;8.410;2023-05-23T04:06:46;39.97;;;22.33;;
28009;SDS011;15334;49.494;8.410;2023-05-23T04:09:14;38.95;;;22.63;;
28009;SDS011;15334;49.494;8.410;2023-05-23T04:11:42;41.00;;;22.20;;
28009;SDS011;15334;49.494;8.410;2023-05-23T04:14:10;40.28;;;22.38;;
28009;SDS011;15334;49.494;8.410;2023-05-23T04:16:39;37.00;;;20.70;;
28009;SDS011;15334;49.494;8.410;2023-05-23T04:19:09;41.10;;;21.60;;
28009;SDS011;15334;49.494;8.410;2023-05-23T04:21:37;33.97;;;21.23;;
28009;SDS011;15334;49.494;8.410;2023-05-23T04:24:05;36.30;;;21.48;;
28009;SDS011;15334;49.494;8.410;2023-05-23T04:26:33;42.35;;;21.15;;
28009;SDS011;15334;49.494;8.410;2023-05-23T04:29:02;40.55;;;20.92;;
28009;SDS011;15334;49.494;8.410;2023-05-23T04:31:32;39.47;;;21.73;;
28009;SDS011;15334;49.494;8.410;2023-05-23T04:34:20;34.10;;;21.90;;
28009;SDS011;15334;49.494;8.410;2023-05-23T04:36:48;36.05;;;21.65;;
28009;SDS011;15334;49.494;8.410;2023-05-23T04:39:21;36.80;;;21.13;;
28009;SDS011;15334;49.494;8.410;2023-05-23T04:41:52;36.42;;;20.67;;
28009;SDS011;15334;49.494;8.410;2023-05-23T04:44:21;38.88;;;20.00;;
28009;SDS011;15334;49.494;8.410;2023-05-23T04:46:51;38.45;;;21.13;;
28009;SDS011;15334;49.494;8.410;2023-05-23T04:49:23;36.53;;;20.33;;
28009;SDS011;15334;49.494;8.410;2023-05-23T04:51:52;34.92;;;19.30;;
28009;SDS011;15334;49.494;8.410;2023-05-23T04:54:20;33.17;;;20.17;;
28009;SDS011;15334;49.494;8.410;2023-05-23T04:56:48;32.00;;;17.98;;
28009;SDS011;15334;49.494;8.410;2023-05-23T04:59:16;33.60;;;19.50;;
28009;SDS011;15334;49.494;8.410;2023-05-23T05:01:44;38.17;;;20.88;;
28009;SDS011;15334;49.494;8.410;2023-05-23T05:04:12;30.02;;;18.55;;
28009;SDS011;15334;49.494;8.410;2023-05-23T05:06:42;30.40;;;18.08;;
28009;SDS011;15334;49.494;8.410;2023-05-23T05:09:10;26.95;;;16.25;;
28009;SDS011;15334;49.494;8.410;2023-05-23T05:11:38;30.08;;;17.17;;
28009;SDS011;15334;49.494;8.410;2023-05-23T05:14:08;26.65;;;16.08;;
28009;SDS011;15334;49.494;8.410;2023-05-23T05:16:41;26.83;;;17.20;;
28009;SDS011;15334;49.494;8.410;2023-05-23T05:19:11;28.65;;;16.40;;
28009;SDS011;15334;49.494;8.410;2023-05-23T05:21:39;27.88;;;15.85;;
28009;SDS011;15334;49.494;8.410;2023-05-23T05:24:08;24.63;;;16.00;;
28009;SDS011;15334;49.494;8.410;2023-05-23T05:26:44;31.33;;;16.38;;
28009;SDS011;15334;49.494;8.410;2023-05-23T05:29:28;26.80;;;15.80;;
28009;SDS011;15334;49.494;8.410;2023-05-23T05:31:56;24.52;;;15.10;;
28009;SDS011;15334;49.494;8.410;2023-05-23T05:34:27;24.13;;;14.88;;
28009;SDS011;15334;49.494;8.410;2023-05-23T05:36:57;27.15;;;14.90;;
28009;SDS011;15334;49.494;8.410;2023-05-23T05:39:45;29.75;;;15.20;;
28009;SDS011;15334;49.494;8.410;2023-05-23T05:42:24;25.00;;;14.97;;
28009;SDS011;15334;49.494;8.410;2023-05-23T05:44:58;27.95;;;16.13;;
28009;SDS011;15334;49.494;8.410;2023-05-23T05:47:35;26.33;;;15.32;;
28009;SDS011;15334;49.494;8.410;2023-05-23T05:50:23;23.80;;;14.88;;
28009;SDS011;15334;49.494;8.410;2023-05-23T05:53:15;24.85;;;13.93;;
28009;SDS011;15334;49.494;8.410;2023-05-23T05:56:01;24.55;;;14.50;;
28009;SDS011;15334;49.494;8.410;2023-05-23T05:58:29;25.85;;;15.23;;
28009;SDS011;15334;49.494;8.410;2023-05-23T06:00:57;26.52;;;13.77;;
28009;SDS011;15334;49.494;8.410;2023-05-23T06:03:25;23.35;;;14.25;;
28009;SDS011;15334;49.494;8.410;2023-05-23T06:05:54;23.65;;;13.98;;
28009;SDS011;15334;49.494;8.410;2023-05-23T06:08:22;26.10;;;14.02;;
28009;SDS011;15334;49.494;8.410;2023-05-23T06:10:50;25.90;;;14.68;;
28009;SDS011;15334;49.494;8.410;2023-05-23T06:13:20;25.27;;;14.05;;
28009;SDS011;15334;49.494;8.410;2023-05-23T06:15:48;24.38;;;14.25;;
28009;SDS011;15334;49.494;8.410;2023-05-23T06:18:16;25.75;;;14.00;;
28009;SDS011;15334;49.494;8.410;2023-05-23T06:20:44;25.05;;;14.40;;
28009;SDS011;15334;49.494;8.410;2023-05-23T06:23:12;23.27;;;14.13;;
28009;SDS011;15334;49.494;8.410;2023-05-23T06:25:41;25.02;;;14.20;;
28009;SDS011;15334;49.494;8.410;2023-05-23T06:28:09;23.85;;;13.82;;
28009;SDS011;15334;49.494;8.410;2023-05-23T06:30:38;22.00;;;13.98;;
28009;SDS011;15334;49.494;8.410;2023-05-23T06:33:07;25.63;;;14.38;;
28009;SDS011;15334;49.494;8.410;2023-05-23T06:35:35;22.15;;;13.27;;
28009;SDS011;15334;49.494;8.410;2023-05-23T06:38:03;22.25;;;13.63;;
28009;SDS011;15334;49.494;8.410;2023-05-23T06:40:31;20.85;;;13.05;;
28009;SDS011;15334;49.494;8.410;2023-05-23T06:42:59;24.48;;;13.60;;
28009;SDS011;15334;49.494;8.410;2023-05-23T06:45:28;19.00;;;12.90;;
28009;SDS011;15334;49.494;8.410;2023-05-23T06:47:57;21.48;;;12.90;;
28009;SDS011;15334;49.494;8.410;2023-05-23T06:50:26;21.42;;;13.50;;
28009;SDS011;15334;49.494;8.410;2023-05-23T06:52:55;21.73;;;13.25;;
28009;SDS011;15334;49.494;8.410;2023-05-23T06:55:23;23.00;;;12.43;;
28009;SDS011;15334;49.494;8.410;2023-05-23T06:57:52;19.73;;;11.93;;
28009;SDS011;15334;49.494;8.410;2023-05-23T07:00:20;18.75;;;11.48;;
28009;SDS011;15334;49.494;8.410;2023-05-23T07:02:48;18.65;;;12.13;;
28009;SDS011;15334;49.494;8.410;2023-05-23T07:05:18;18.80;;;12.25;;
28009;SDS011;15334;49.494;8.410;2023-05-23T07:07:47;19.90;;;13.05;;
28009;SDS011;15334;49.494;8.410;2023-05-23T07:10:15;18.52;;;11.98;;
28009;SDS011;15334;49.494;8.410;2023-05-23T07:12:45;16.33;;;9.95;;
28009;SDS011;15334;49.494;8.410;2023-05-23T07:15:13;18.27;;;10.70;;
28009;SDS011;15334;49.494;8.410;2023-05-23T07:17:41;16.13;;;10.27;;
28009;SDS011;15334;49.494;8.410;2023-05-23T07:20:10;16.92;;;10.40;;
28009;SDS011;15334;49.494;8.410;2023-05-23T07:22:39;19.63;;;11.52;;
28009;SDS011;15334;49.494;8.410;2023-05-23T07:25:07;20.63;;;10.65;;
28009;SDS011;15334;49.494;8.410;2023-05-23T07:27:36;16.27;;;10.40;;
28009;SDS011;15334;49.494;8.410;2023-05-23T07:30:05;22.98;;;11.50;;
28009;SDS011;15334;49.494;8.410;2023-05-23T07:32:35;16.15;;;9.85;;
28009;SDS011;15334;49.494;8.410;2023-05-23T07:35:03;14.52;;;9.23;;
28009;SDS011;15334;49.494;8.410;2023-05-23T07:37:32;14.00;;;10.05;;
28009;SDS011;15334;49.494;8.410;2023-05-23T07:40:01;15.32;;;9.60;;
28009;SDS011;15334;49.494;8.410;2023-05-23T07:42:29;12.90;;;8.30;;
28009;SDS011;15334;49.494;8.410;2023-05-23T07:44:57;11.48;;;7.78;;
28009;SDS011;15334;49.494;8.410;2023-05-23T07:47:26;12.48;;;7.05;;
28009;SDS011;15334;49.494;8.410;2023-05-23T07:49:54;9.55;;;6.28;;
28009;SDS011;15334;49.494;8.410;2023-05-23T07:52:22;11.05;;;6.88;;
28009;SDS011;15334;49.494;8.410;2023-05-23T07:54:50;10.07;;;5.72;;
28009;SDS011;15334;49.494;8.410;2023-05-23T07:57:19;11.50;;;6.03;;
28009;SDS011;15334;49.494;8.410;2023-05-23T07:59:49;9.65;;;4.82;;
28009;SDS011;15334;49.494;8.410;2023-05-23T08:02:18;8.30;;;4.97;;
28009;SDS011;15334;49.494;8.410;2023-05-23T08:04:47;6.35;;;4.32;;
28009;SDS011;15334;49.494;8.410;2023-05-23T08:07:15;6.53;;;4.18;;
28009;SDS011;15334;49.494;8.410;2023-05-23T08:09:45;7.03;;;4.10;;
28009;SDS011;15334;49.494;8.410;2023-05-23T08:12:13;6.97;;;4.35;;
28009;SDS011;15334;49.494;8.410;2023-05-23T08:14:42;8.77;;;4.90;;
28009;SDS011;15334;49.494;8.410;2023-05-23T08:17:17;7.90;;;4.88;;
28009;SDS011;15334;49.494;8.410;2023-05-23T08:19:46;11.25;;;5.32;;
28009;SDS011;15334;49.494;8.410;2023-05-23T08:22:14;8.73;;;5.70;;
28009;SDS011;15334;49.494;8.410;2023-05-23T08:24:43;8.95;;;6.43;;
28009;SDS011;15334;49.494;8.410;2023-05-23T08:27:11;10.98;;;6.57;;
28009;SDS011;15334;49.494;8.410;2023-05-23T08:29:39;10.10;;;6.60;;
28009;SDS011;15334;49.494;8.410;2023-05-23T08:32:09;8.63;;;5.85;;
28009;SDS011;15334;49.494;8.410;2023-05-23T08:34:38;10.00;;;5.75;;
28009;SDS011;15334;49.494;8.410;2023-05-23T08:37:07;7.07;;;4.80;;
28009;SDS011;15334;49.494;8.410;2023-05-23T08:39:35;8.55;;;5.93;;
28009;SDS011;15334;49.494;8.410;2023-05-23T08:42:03;7.00;;;4.80;;
28009;SDS011;15334;49.494;8.410;2023-05-23T08:44:31;7.45;;;5.00;;
28009;SDS011;15334;49.494;8.410;2023-05-23T08:47:00;7.15;;;4.70;;
28009;SDS011;15334;49.494;8.410;2023-05-23T08:49:33;6.25;;;4.28;;
28009;SDS011;15334;49.494;8.410;2023-05-23T08:52:01;8.07;;;4.25;;
28009;SDS011;15334;49.494;8.410;2023-05-23T08:54:30;6.68;;;3.78;;
28009;SDS011;15334;49.494;8.410;2023-05-23T08:56:59;6.10;;;3.70;;
28009;SDS011;15334;49.494;8.410;2023-05-23T08:59:28;7.28;;;3.97;;
28009;SDS011;15334;49.494;8.410;2023-05-23T09:01:57;4.82;;;3.40;;
28009;SDS011;15334;49.494;8.410;2023-05-23T09:04:28;7.10;;;3.65;;
28009;SDS011;15334;49.494;8.410;2023-05-23T09:06:59;4.85;;;3.35;;
28009;SDS011;15334;49.494;8.410;2023-05-23T09:09:29;5.32;;;3.47;;
28009;SDS011;15334;49.494;8.410;2023-05-23T09:11:59;5.50;;;3.50;;
28009;SDS011;15334;49.494;8.410;2023-05-23T09:14:28;6.28;;;3.95;;
28009;SDS011;15334;49.494;8.410;2023-05-23T09:17:17;5.70;;;3.28;;
28009;SDS011;15334;49.494;8.410;2023-05-23T09:19:45;7.70;;;3.63;;
28009;SDS011;15334;49.494;8.410;2023-05-23T09:22:15;6.22;;;3.45;;
28009;SDS011;15334;49.494;8.410;2023-05-23T09:24:43;5.05;;;2.67;;
28009;SDS011;15334;49.494;8.410;2023-05-23T09:27:11;4.75;;;2.83;;
28009;SDS011;15334;49.494;8.410;2023-05-23T09:29:39;5.65;;;3.13;;
28009;SDS011;15334;49.494;8.410;2023-05-23T09:32:26;4.60;;;2.75;;
28009;SDS011;15334;49.494;8.410;2023-05-23T09:34:54;4.72;;;3.00;;
28009;SDS011;15334;49.494;8.410;2023-05-23T09:37:25;4.72;;;2.65;;
28009;SDS011;15334;49.494;8.410;2023-05-23T09:42:44;5.05;;;2.85;;
28009;SDS011;15334;49.494;8.410;2023-05-23T09:45:13;6.22;;;3.00;;
28009;SDS011;15334;49.494;8.410;2023-05-23T09:48:01;4.88;;;2.60;;
28009;SDS011;15334;49.494;8.410;2023-05-23T09:50:30;4.93;;;2.67;;
28009;SDS011;15334;49.494;8.410;2023-05-23T09:53:00;5.78;;;3.05;;
28009;SDS011;15334;49.494;8.410;2023-05-23T09:55:48;6.97;;;3.33;;
28009;SDS011;15334;49.494;8.410;2023-05-23T09:58:35;7.55;;;3.20;;
28009;SDS011;15334;49.494;8.410;2023-05-23T10:01:05;5.70;;;3.30;;
28009;SDS011;15334;49.494;8.410;2023-05-23T10:03:39;5.10;;;3.35;;
28009;SDS011;15334;49.494;8.410;2023-05-23T10:06:31;6.15;;;3.17;;
28009;SDS011;15334;49.494;8.410;2023-05-23T10:09:11;6.03;;;3.83;;
28009;SDS011;15334;49.494;8.410;2023-05-23T10:12:31;5.40;;;3.72;;
28009;SDS011;15334;49.494;8.410;2023-05-23T10:15:30;8.20;;;4.63;;
28009;SDS011;15334;49.494;8.410;2023-05-23T10:18:11;6.47;;;4.25;;
28009;SDS011;15334;49.494;8.410;2023-05-23T10:21:02;11.38;;;5.03;;
28009;SDS011;15334;49.494;8.410;2023-05-23T10:23:36;7.78;;;5.35;;
28009;SDS011;15334;49.494;8.410;2023-05-23T10:26:07;8.57;;;4.63;;
28009;SDS011;15334;49.494;8.410;2023-05-23T10:28:37;7.13;;;4.28;;
28009;SDS011;15334;49.494;8.410;2023-05-23T10:31:06;7.80;;;4.47;;
28009;SDS011;15334;49.494;8.410;2023-05-23T10:33:54;7.07;;;4.55;;
28009;SDS011;15334;49.494;8.410;2023-05-23T10:36:50;7.40;;;4.30;;
28009;SDS011;15334;49.494;8.410;2023-05-23T10:39:27;6.72;;;3.47;;
28009;SDS011;15334;49.494;8.410;2023-05-23T10:42:03;5.38;;;3.60;;
28009;SDS011;15334;49.494;8.410;2023-05-23T10:47:46;6.32;;;3.63;;
28009;SDS011;15334;49.494;8.410;2023-05-23T10:50:34;5.65;;;3.95;;
28009;SDS011;15334;49.494;8.410;2023-05-23T10:53:05;5.13;;;3.50;;
28009;SDS011;15334;49.494;8.410;2023-05-23T10:55:55;8.38;;;4.15;;
28009;SDS011;15334;49.494;8.410;2023-05-23T10:58:43;5.15;;;3.80;;
28009;SDS011;15334;49.494;8.410;2023-05-23T11:01:12;5.18;;;3.58;;
28009;SDS011;15334;49.494;8.410;2023-05-23T11:04:03;6.47;;;4.05;;
28009;SDS011;15334;49.494;8.410;2023-05-23T11:06:51;6.78;;;4.30;;
28009;SDS011;15334;49.494;8.410;2023-05-23T11:09:43;7.10;;;4.60;;
28009;SDS011;15334;49.494;8.410;2023-05-23T11:12:39;8.15;;;4.13;;
28009;SDS011;15334;49.494;8.410;2023-05-23T11:15:39;6.47;;;4.07;;
28009;SDS011;15334;49.494;8.410;2023-05-23T11:18:10;6.90;;;4.07;;
28009;SDS011;15334;49.494;8.410;2023-05-23T11:20:47;5.35;;;3.85;;
28009;SDS011;15334;49.494;8.410;2023-05-23T11:23:20;7.57;;;3.97;;
28009;SDS011;15334;49.494;8.410;2023-05-23T11:25:49;7.43;;;4.53;;
28009;SDS011;15334;49.494;8.410;2023-05-23T11:31:45;6.05;;;3.92;;
28009;SDS011;15334;49.494;8.410;2023-05-23T11:34:34;6.55;;;4.05;;
28009;SDS011;15334;49.494;8.410;2023-05-23T11:37:24;5.60;;;3.80;;
28009;SDS011;15334;49.494;8.410;2023-05-23T11:40:26;9.75;;;4.57;;
28009;SDS011;15334;49.494;8.410;2023-05-23T11:43:16;6.90;;;4.22;;
28009;SDS011;15334;49.494;8.410;2023-05-23T11:46:08;9.13;;;5.97;;
28009;SDS011;15334;49.494;8.410;2023-05-23T11:48:58;8.80;;;5.97;;
28009;SDS011;15334;49.494;8.410;2023-05-23T11:51:46;10.48;;;5.43;;
28009;SDS011;15334;49.494;8.410;2023-05-23T11:54:34;11.32;;;5.43;;
28009;SDS011;15334;49.494;8.410;2023-05-23T11:57:23;10.85;;;5.75;;
28009;SDS011;15334;49.494;8.410;2023-05-23T12:00:12;8.57;;;5.32;;
28009;SDS011;15334;49.494;8.410;2023-05-23T12:03:05;10.02;;;5.40;;
28009;SDS011;15334;49.494;8.410;2023-05-23T12:05:56;9.52;;;5.70;;
28009;SDS011;15334;49.494;8.410;2023-05-23T12:08:45;8.57;;;5.30;;
28009;SDS011;15334;49.494;8.410;2023-05-23T12:11:34;10.05;;;6.00;;
28009;SDS011;15334;49.494;8.410;2023-05-23T12:14:22;8.88;;;5.80;;
28009;SDS011;15334;49.494;8.410;2023-05-23T12:17:15;8.20;;;5.03;;
28009;SDS011;15334;49.494;8.410;2023-05-23T12:20:05;8.88;;;5.13;;
28009;SDS011;15334;49.494;8.410;2023-05-23T12:22:57;8.38;;;5.60;;
28009;SDS011;15334;49.494;8.410;2023-05-23T12:25:48;9.10;;;5.38;;
28009;SDS011;15334;49.494;8.410;2023-05-23T12:28:37;9.35;;;5.68;;
28009;SDS011;15334;49.494;8.410;2023-05-23T12:31:27;8.05;;;5.32;;
28009;SDS011;15334;49.494;8.410;2023-05-23T12:34:16;10.90;;;4.70;;
28009;SDS011;15334;49.494;8.410;2023-05-23T12:36:46;8.63;;;4.85;;
28009;SDS011;15334;49.494;8.410;2023-05-23T12:39:26;10.15;;;5.05;;
28009;SDS011;15334;49.494;8.410;2023-05-23T12:41:55;8.00;;;5.40;;
28009;SDS011;15334;49.494;8.410;2023-05-23T12:44:33;9.10;;;5.82;;
28009;SDS011;15334;49.494;8.410;2023-05-23T12:47:01;10.13;;;6.45;;
28009;SDS011;15334;49.494;8.410;2023-05-23T12:49:30;11.80;;;6.10;;
28009;SDS011;15334;49.494;8.410;2023-05-23T12:51:58;10.35;;;5.72;;
28009;SDS011;15334;49.494;8.410;2023-05-23T12:54:27;8.32;;;4.95;;
28009;SDS011;15334;49.494;8.410;2023-05-23T12:56:55;9.30;;;5.95;;
28009;SDS011;15334;49.494;8.410;2023-05-23T12:59:23;10.20;;;6.45;;
28009;SDS011;15334;49.494;8.410;2023-05-23T13:01:51;9.93;;;6.43;;
28009;SDS011;15334;49.494;8.410;2023-05-23T13:04:20;11.63;;;6.53;;
28009;SDS011;15334;49.494;8.410;2023-05-23T13:06:48;10.40;;;6.78;;
28009;SDS011;15334;49.494;8.410;2023-05-23T13:09:18;11.15;;;7.53;;
28009;SDS011;15334;49.494;8.410;2023-05-23T13:11:47;10.48;;;6.60;;
28009;SDS011;15334;49.494;8.410;2023-05-23T13:14:15;10.55;;;6.43;;
28009;SDS011;15334;49.494;8.410;2023-05-23T13:16:44;12.20;;;6.75;;
28009;SDS011;15334;49.494;8.410;2023-05-23T13:19:12;12.27;;;6.82;;
28009;SDS011;15334;49.494;8.410;2023-05-23T13:21:40;11.35;;;6.43;;
28009;SDS011;15334;49.494;8.410;2023-05-23T13:24:09;11.73;;;7.30;;
28009;SDS011;15334;49.494;8.410;2023-05-23T13:26:37;12.77;;;7.13;;
28009;SDS011;15334;49.494;8.410;2023-05-23T13:29:06;8.90;;;6.25;;
28009;SDS011;15334;49.494;8.410;2023-05-23T13:31:35;9.50;;;6.63;;
28009;SDS011;15334;49.494;8.410;2023-05-23T13:34:03;10.45;;;6.32;;
28009;SDS011;15334;49.494;8.410;2023-05-23T13:36:31;9.77;;;6.57;;
28009;SDS011;15334;49.494;8.410;2023-05-23T13:39:01;8.75;;;5.22;;
28009;SDS011;15334;49.494;8.410;2023-05-23T13:41:32;9.98;;;5.07;;
28009;SDS011;15334;49.494;8.410;2023-05-23T13:44:00;8.25;;;5.05;;
28009;SDS011;15334;49.494;8.410;2023-05-23T13:46:29;6.93;;;4.38;;
28009;SDS011;15334;49.494;8.410;2023-05-23T13:48:57;9.10;;;5.22;;
28009;SDS011;15334;49.494;8.410;2023-05-23T13:51:25;7.15;;;4.57;;
28009;SDS011;15334;49.494;8.410;2023-05-23T13:53:53;7.30;;;4.00;;
28009;SDS011;15334;49.494;8.410;2023-05-23T13:56:22;8.32;;;5.25;;
28009;SDS011;15334;49.494;8.410;2023-05-23T13:58:50;7.35;;;4.68;;
28009;SDS011;15334;49.494;8.410;2023-05-23T14:01:18;9.93;;;4.60;;
28009;SDS011;15334;49.494;8.410;2023-05-23T14:03:48;7.97;;;3.55;;
28009;SDS011;15334;49.494;8.410;2023-05-23T14:06:16;10.13;;;3.75;;
28009;SDS011;15334;49.494;8.410;2023-05-23T14:08:44;8.25;;;3.53;;
28009;SDS011;15334;49.494;8.410;2023-05-23T14:11:12;7.80;;;3.75;;
28009;SDS011;15334;49.494;8.410;2023-05-23T14:13:40;5.20;;;3.35;;
28009;SDS011;15334;49.494;8.410;2023-05-23T14:16:08;5.13;;;3.22;;
28009;SDS011;15334;49.494;8.410;2023-05-23T14:18:36;5.75;;;3.28;;
28009;SDS011;15334;49.494;8.410;2023-05-23T14:21:06;7.70;;;4.40;;
28009;SDS011;15334;49.494;8.410;2023-05-23T14:23:34;12.60;;;5.13;;
28009;SDS011;15334;49.494;8.410;2023-05-23T14:26:02;9.40;;;5.88;;
28009;SDS011;15334;49.494;8.410;2023-05-23T14:28:31;11.23;;;6.28;;
28009;SDS011;15334;49.494;8.410;2023-05-23T14:30:59;11.35;;;6.95;;
28009;SDS011;15334;49.494;8.410;2023-05-23T14:33:27;10.18;;;5.70;;
28009;SDS011;15334;49.494;8.410;2023-05-23T14:35:55;9.32;;;5.88;;
28009;SDS011;15334;49.494;8.410;2023-05-23T14:38:24;9.80;;;5.88;;
28009;SDS011;15334;49.494;8.410;2023-05-23T14:40:52;11.05;;;5.95;;
28009;SDS011;15334;49.494;8.410;2023-05-23T14:43:21;10.27;;;6.35;;
28009;SDS011;15334;49.494;8.410;2023-05-23T14:45:49;9.82;;;6.63;;
28009;SDS011;15334;49.494;8.410;2023-05-23T14:48:17;9.20;;;5.07;;
28009;SDS011;15334;49.494;8.410;2023-05-23T14:50:45;12.23;;;6.45;;
28009;SDS011;15334;49.494;8.410;2023-05-23T14:53:13;10.05;;;6.90;;
28009;SDS011;15334;49.494;8.410;2023-05-23T14:55:43;11.70;;;5.90;;
28009;SDS011;15334;49.494;8.410;2023-05-23T14:58:11;9.38;;;5.90;;
28009;SDS011;15334;49.494;8.410;2023-05-23T15:00:39;11.63;;;7.18;;
28009;SDS011;15334;49.494;8.410;2023-05-23T15:03:08;10.57;;;7.13;;
28009;SDS011;15334;49.494;8.410;2023-05-23T15:05:36;10.70;;;6.82;;
28009;SDS011;15334;49.494;8.410;2023-05-23T15:08:06;11.73;;;6.93;;
28009;SDS011;15334;49.494;8.410;2023-05-23T15:10:35;13.90;;;6.68;;
28009;SDS011;15334;49.494;8.410;2023-05-23T15:13:04;12.70;;;6.63;;